Farwood, Mississippi
Current Conditions -  °F | °C
As of 7:53 AM on Friday 19 Dec 2014 (Local Time) from KMCB Reporting Station
Light Rain Light Rain  
Wind Chill: 45°   Ceiling: 8000
Heat Index: 48°   Visibility: 4mi
Dew Point: 46°   Wind: 6mph
Humidity: 93%   Direction: 70°ENE
Pressure: 30.17"   Gusts: NA
Location:  31.1804°N, 90.4473°W
Report Text: KMCB 191353Z AUTO 07005KT 4SM -RA BR BKN080 OVC095 09/08 A3017 RMK AO2 SLP216 P0018 T00890078
Loading
Personal Weather Stations






























Interactive Weather Map New forecast layout! Learn more

10-Day Weather Forecast

Advertisements
Track Severe Weather on mobile